createdAt,value
2022-11-14T00:01:31.242Z,16.50
2022-11-14T00:04:17.475Z,16.60
2022-11-14T00:07:03.683Z,16.60
2022-11-14T00:09:49.930Z,16.70
2022-11-14T00:12:36.229Z,16.70
2022-11-14T00:15:22.759Z,16.70
2022-11-14T00:18:10.635Z,16.70
2022-11-14T00:20:57.140Z,16.80
2022-11-14T00:23:43.337Z,16.70
2022-11-14T00:26:29.883Z,16.70
2022-11-14T00:29:17.041Z,16.80
2022-11-14T00:32:03.502Z,16.80
2022-11-14T00:34:51.126Z,16.80
2022-11-14T00:37:37.273Z,16.60
2022-11-14T00:40:23.877Z,16.60
2022-11-14T00:43:10.316Z,16.60
2022-11-14T00:45:56.961Z,16.50
2022-11-14T00:48:43.828Z,16.60
2022-11-14T00:51:31.455Z,16.60
2022-11-14T00:54:18.010Z,16.60
2022-11-14T00:57:04.247Z,16.70
2022-11-14T00:59:50.429Z,16.60
2022-11-14T01:02:37.007Z,16.50
2022-11-14T01:05:24.097Z,16.40
2022-11-14T01:08:12.026Z,16.30
2022-11-14T01:10:59.025Z,16.00
2022-11-14T01:13:45.618Z,16.20
2022-11-14T01:16:32.218Z,16.40
2022-11-14T01:19:19.790Z,16.40
2022-11-14T01:22:06.765Z,16.50
2022-11-14T01:24:55.098Z,16.60
2022-11-14T01:27:41.371Z,16.60
2022-11-14T01:30:27.906Z,16.70
2022-11-14T01:33:14.430Z,16.70
2022-11-14T01:36:01.325Z,16.70
2022-11-14T01:38:47.874Z,16.60
2022-11-14T01:41:35.705Z,16.60
2022-11-14T01:44:44.583Z,16.70
2022-11-14T01:47:33.813Z,16.60
2022-11-14T01:50:20.410Z,16.60
2022-11-14T01:53:06.877Z,16.60
2022-11-14T01:55:56.110Z,16.50
2022-11-14T01:58:47.785Z,16.50
2022-11-14T02:01:37.748Z,16.50
2022-11-14T02:04:26.634Z,16.50
2022-11-14T02:07:13.685Z,16.60
2022-11-14T02:10:02.916Z,16.60
2022-11-14T02:12:50.617Z,16.60
2022-11-14T02:15:38.665Z,16.70
2022-11-14T02:18:25.118Z,16.70
2022-11-14T02:21:13.022Z,16.60
2022-11-14T02:23:59.403Z,16.60
2022-11-14T02:26:45.903Z,16.60
2022-11-14T02:29:33.510Z,16.60
2022-11-14T02:32:19.898Z,16.60
2022-11-14T02:35:06.633Z,16.60
2022-11-14T02:37:54.082Z,16.60
2022-11-14T02:40:40.597Z,16.60
2022-11-14T02:43:26.963Z,16.60
2022-11-14T02:46:13.345Z,16.60
2022-11-14T02:48:59.652Z,16.60
2022-11-14T02:51:46.164Z,16.60
2022-11-14T02:54:34.031Z,16.60
2022-11-14T02:57:20.172Z,16.60
2022-11-14T03:00:13.503Z,16.60
2022-11-14T03:03:01.156Z,16.60
2022-11-14T03:05:47.758Z,16.60
2022-11-14T03:08:34.299Z,16.50
2022-11-14T03:11:21.678Z,16.60
2022-11-14T03:14:08.324Z,16.50
2022-11-14T03:16:56.137Z,16.50
2022-11-14T03:19:42.426Z,16.50
2022-11-14T03:22:29.394Z,16.50
2022-11-14T03:25:15.975Z,16.50
2022-11-14T03:28:03.873Z,16.50
2022-11-14T03:30:50.323Z,16.40
2022-11-14T03:33:37.014Z,16.40
2022-11-14T03:36:23.269Z,16.50
2022-11-14T03:39:09.835Z,16.40
2022-11-14T03:41:56.390Z,16.40
2022-11-14T03:44:43.866Z,16.40
2022-11-14T03:47:30.393Z,16.40
2022-11-14T03:50:17.287Z,16.40
2022-11-14T03:53:03.731Z,16.30
2022-11-14T03:55:50.786Z,16.20
2022-11-14T03:58:37.506Z,15.80
2022-11-14T04:01:25.518Z,15.90
2022-11-14T04:04:12.848Z,15.90
2022-11-14T04:06:59.253Z,15.80
2022-11-14T04:09:47.080Z,15.90
2022-11-14T04:12:33.511Z,16.10
2022-11-14T04:15:20.558Z,16.20
2022-11-14T04:18:08.315Z,16.40
2022-11-14T04:20:54.794Z,16.30
2022-11-14T04:23:41.062Z,16.40
2022-11-14T04:26:27.613Z,16.40
2022-11-14T04:29:14.104Z,16.40
2022-11-14T04:32:00.566Z,16.40
2022-11-14T04:34:48.240Z,16.40
2022-11-14T04:37:34.611Z,16.40
2022-11-14T04:40:21.186Z,16.30
2022-11-14T04:43:07.817Z,16.30
2022-11-14T04:45:53.895Z,16.30
2022-11-14T04:48:40.154Z,16.20
2022-11-14T04:51:28.157Z,16.20
2022-11-14T04:54:14.614Z,16.20
2022-11-14T04:57:01.036Z,16.20
2022-11-14T04:59:47.671Z,16.20
2022-11-14T05:02:33.916Z,16.10
2022-11-14T05:05:20.301Z,16.20
2022-11-14T05:08:08.201Z,16.20
2022-11-14T05:10:54.784Z,16.20
2022-11-14T05:13:40.945Z,16.10
2022-11-14T05:16:27.462Z,16.00
2022-11-14T05:19:14.158Z,16.00
2022-11-14T05:22:00.476Z,15.90
2022-11-14T05:24:48.378Z,16.00
2022-11-14T05:27:34.502Z,15.90
2022-11-14T05:30:21.108Z,15.90
2022-11-14T05:33:07.581Z,16.00
2022-11-14T05:35:54.007Z,16.00
2022-11-14T05:38:40.342Z,16.00
2022-11-14T05:41:28.107Z,16.00
2022-11-14T05:44:14.474Z,16.00
2022-11-14T05:47:00.980Z,15.90
2022-11-14T05:49:47.331Z,15.90
2022-11-14T05:52:33.837Z,15.90
2022-11-14T05:55:24.577Z,15.90
2022-11-14T05:58:12.314Z,15.90
2022-11-14T06:01:04.011Z,15.90
2022-11-14T06:03:50.708Z,15.90
2022-11-14T06:06:37.213Z,15.90
2022-11-14T06:09:23.599Z,15.90
2022-11-14T06:12:09.959Z,15.90
2022-11-14T06:14:57.611Z,15.90
2022-11-14T06:17:44.028Z,16.00
2022-11-14T06:20:30.691Z,16.00
2022-11-14T06:23:21.931Z,16.00
2022-11-14T06:26:20.539Z,16.00
2022-11-14T06:29:07.567Z,16.00
2022-11-14T06:31:55.291Z,15.90
2022-11-14T06:34:41.743Z,15.70
2022-11-14T06:37:32.554Z,15.80
2022-11-14T06:40:20.071Z,15.80
2022-11-14T06:43:06.651Z,15.80
2022-11-14T06:45:54.841Z,15.80
2022-11-14T06:48:43.258Z,15.80
2022-11-14T06:51:29.723Z,15.80
2022-11-14T06:54:16.207Z,15.80
2022-11-14T06:57:02.763Z,15.90
2022-11-14T06:59:49.092Z,16.00
2022-11-14T07:02:35.378Z,15.90
2022-11-14T07:05:23.129Z,15.50
2022-11-14T07:08:09.379Z,15.10
2022-11-14T07:10:55.639Z,14.80
2022-11-14T07:13:41.927Z,14.60
2022-11-14T07:16:30.630Z,14.30
2022-11-14T07:19:16.924Z,14.20
2022-11-14T07:22:04.484Z,14.20
2022-11-14T07:24:51.099Z,14.00
2022-11-14T07:27:37.469Z,14.10
2022-11-14T07:30:23.875Z,14.10
2022-11-14T07:33:11.141Z,14.10
2022-11-14T07:35:57.425Z,14.10
2022-11-14T07:38:45.097Z,14.20
2022-11-14T07:41:31.322Z,14.10
2022-11-14T07:44:17.733Z,13.80
2022-11-14T07:47:04.476Z,13.70
2022-11-14T07:49:51.017Z,13.80
2022-11-14T07:52:37.186Z,13.80
2022-11-14T07:55:24.971Z,14.00
2022-11-14T07:58:11.491Z,14.00
2022-11-14T08:01:01.477Z,14.00
2022-11-14T08:03:48.092Z,14.00
2022-11-14T08:06:34.331Z,13.80
2022-11-14T08:09:20.641Z,13.90
2022-11-14T08:12:08.497Z,13.80
2022-11-14T08:14:54.881Z,14.20
2022-11-14T08:17:41.563Z,14.20
2022-11-14T08:20:29.010Z,14.20
2022-11-14T08:23:16.066Z,13.90
2022-11-14T08:26:02.450Z,14.10
2022-11-14T08:28:53.666Z,14.50
2022-11-14T08:31:39.934Z,14.90
2022-11-14T08:34:29.018Z,15.10
2022-11-14T08:37:15.675Z,15.20
2022-11-14T08:40:02.178Z,15.30
2022-11-14T08:42:48.703Z,15.50
2022-11-14T08:45:36.607Z,15.60
2022-11-14T08:48:23.149Z,15.60
2022-11-14T08:51:09.302Z,15.50
2022-11-14T08:53:55.929Z,15.60
2022-11-14T08:56:41.998Z,15.70
2022-11-14T08:59:28.353Z,15.80
2022-11-14T09:02:16.411Z,15.80
2022-11-14T09:05:02.954Z,15.70
2022-11-14T09:07:49.435Z,15.80
2022-11-14T09:10:36.024Z,15.50
2022-11-14T09:13:22.474Z,15.50
2022-11-14T09:16:09.345Z,15.50
2022-11-14T09:18:57.177Z,15.40
2022-11-14T09:21:43.445Z,15.30
2022-11-14T09:24:29.653Z,15.40
2022-11-14T09:27:17.099Z,15.50
2022-11-14T09:30:04.470Z,15.50
2022-11-14T09:32:51.037Z,15.50
2022-11-14T09:35:38.739Z,15.60
2022-11-14T09:38:25.378Z,15.40
2022-11-14T09:41:24.044Z,15.50
2022-11-14T09:44:37.562Z,15.20
2022-11-14T09:47:28.973Z,15.10
2022-11-14T09:50:21.901Z,15.30
2022-11-14T09:53:17.726Z,15.30
2022-11-14T09:56:04.195Z,15.40
2022-11-14T09:58:50.727Z,15.40
2022-11-14T10:01:47.603Z,15.40
2022-11-14T10:04:49.254Z,15.20
2022-11-14T10:07:45.281Z,15.50
2022-11-14T10:10:45.938Z,15.50
2022-11-14T10:13:43.390Z,15.70
2022-11-14T10:16:37.998Z,15.70
2022-11-14T10:19:38.682Z,15.70
2022-11-14T10:22:44.902Z,15.80
2022-11-14T10:25:45.046Z,15.90
2022-11-14T10:28:47.712Z,15.80
2022-11-14T10:31:45.748Z,15.90
2022-11-14T10:34:37.304Z,15.80
2022-11-14T10:37:30.548Z,15.90
2022-11-14T10:40:19.307Z,15.90
2022-11-14T10:43:16.328Z,16.00
2022-11-14T10:46:08.594Z,16.10
2022-11-14T10:49:00.076Z,16.10
2022-11-14T10:51:51.154Z,16.10
2022-11-14T10:54:42.859Z,16.10
2022-11-14T10:57:30.098Z,16.00
2022-11-14T11:00:20.248Z,15.90
2022-11-14T11:03:07.496Z,15.90
2022-11-14T11:05:57.448Z,15.90
2022-11-14T11:09:02.007Z,15.80
2022-11-14T11:11:57.026Z,15.90
2022-11-14T11:14:44.151Z,15.90
2022-11-14T11:17:38.504Z,16.00
2022-11-14T11:20:30.166Z,15.90
2022-11-14T11:23:20.922Z,15.80
2022-11-14T11:26:09.492Z,15.90
2022-11-14T11:29:08.804Z,15.90
2022-11-14T11:31:58.828Z,15.90
2022-11-14T11:34:46.882Z,15.80
2022-11-14T11:37:36.397Z,15.90
2022-11-14T11:40:26.340Z,15.90
2022-11-14T11:46:33.383Z,15.90
2022-11-14T11:49:24.567Z,15.90
2022-11-14T11:52:24.792Z,15.80
2022-11-14T11:55:17.827Z,15.90
2022-11-14T11:58:07.433Z,15.90
2022-11-14T12:00:55.727Z,15.90
2022-11-14T12:03:47.463Z,15.10
2022-11-14T12:06:40.387Z,14.60
2022-11-14T12:10:03.516Z,14.50
2022-11-14T12:12:59.668Z,14.00
2022-11-14T12:15:56.415Z,14.40
2022-11-14T12:19:08.570Z,14.70
2022-11-14T12:22:17.263Z,14.70
2022-11-14T12:25:35.238Z,14.40
2022-11-14T12:28:42.730Z,14.30
2022-11-14T12:31:33.242Z,14.40
2022-11-14T12:34:27.457Z,15.20
2022-11-14T12:37:18.998Z,15.70
2022-11-14T12:40:08.686Z,15.80
2022-11-14T12:42:57.385Z,16.00
2022-11-14T12:46:01.239Z,16.10
2022-11-14T12:48:47.934Z,16.20
2022-11-14T12:51:52.210Z,16.10
2022-11-14T12:54:46.859Z,16.10
2022-11-14T12:57:50.094Z,16.10
2022-11-14T13:01:00.967Z,16.00
2022-11-14T13:03:59.818Z,16.10
2022-11-14T13:06:59.157Z,16.10
2022-11-14T13:10:02.031Z,16.10
2022-11-14T13:13:18.122Z,16.10
2022-11-14T13:16:38.807Z,16.20
2022-11-14T13:19:42.600Z,16.10
2022-11-14T13:22:41.160Z,15.90
2022-11-14T13:25:28.393Z,15.90
2022-11-14T13:28:47.824Z,15.80
2022-11-14T13:31:47.958Z,16.10
2022-11-14T13:34:41.379Z,16.10
2022-11-14T13:37:42.749Z,16.00
2022-11-14T13:40:35.622Z,16.10
2022-11-14T13:43:32.024Z,16.10
2022-11-14T13:46:32.527Z,16.00
2022-11-14T13:49:36.577Z,15.90
2022-11-14T13:52:25.013Z,16.00
2022-11-14T13:55:20.948Z,16.00
2022-11-14T13:58:23.274Z,16.00
2022-11-14T14:01:20.954Z,16.10
2022-11-14T14:04:24.652Z,16.20
2022-11-14T14:07:21.235Z,16.30
2022-11-14T14:10:16.594Z,16.20
2022-11-14T14:13:15.065Z,16.10
2022-11-14T14:16:08.020Z,16.30
2022-11-14T14:19:03.372Z,16.30
2022-11-14T14:21:58.079Z,16.30
2022-11-14T14:24:55.920Z,16.30
2022-11-14T14:27:53.821Z,16.20
2022-11-14T14:30:40.566Z,16.20
2022-11-14T14:33:26.921Z,16.30
2022-11-14T14:36:22.214Z,16.50
2022-11-14T14:39:18.262Z,16.20
2022-11-14T14:42:11.991Z,16.30
2022-11-14T14:44:59.263Z,16.10
2022-11-14T14:47:47.914Z,16.20
2022-11-14T14:50:38.386Z,16.20
2022-11-14T14:53:26.942Z,16.30
2022-11-14T14:56:19.956Z,16.10
2022-11-14T14:59:22.578Z,15.90
2022-11-14T15:02:17.296Z,16.10
2022-11-14T15:05:04.285Z,16.10
2022-11-14T15:07:51.594Z,16.00
2022-11-14T15:10:38.823Z,15.90
2022-11-14T15:13:26.308Z,15.90
2022-11-14T15:16:14.407Z,15.90
2022-11-14T15:19:01.751Z,15.90
2022-11-14T15:22:02.304Z,15.80
2022-11-14T15:25:21.593Z,15.90
2022-11-14T15:28:17.258Z,15.90
2022-11-14T15:31:05.274Z,15.90
2022-11-14T15:34:08.183Z,16.00
2022-11-14T15:37:21.953Z,15.90
2022-11-14T15:40:19.299Z,15.80
2022-11-14T15:43:36.679Z,15.80
2022-11-14T15:46:44.304Z,15.60
2022-11-14T15:49:31.907Z,15.70
2022-11-14T15:52:24.686Z,15.80
2022-11-14T15:55:16.502Z,15.80
2022-11-14T16:01:14.696Z,15.70
2022-11-14T16:04:01.731Z,16.00
2022-11-14T16:06:49.571Z,16.30
2022-11-14T16:09:36.036Z,16.60
2022-11-14T16:12:22.355Z,16.70
2022-11-14T16:15:09.211Z,16.60
2022-11-14T16:17:55.441Z,16.70
2022-11-14T16:20:41.735Z,16.80
2022-11-14T16:23:29.524Z,16.80
2022-11-14T16:26:16.142Z,16.70
2022-11-14T16:29:02.693Z,16.60
2022-11-14T16:31:51.575Z,16.50
2022-11-14T16:34:38.052Z,16.50
2022-11-14T16:37:25.155Z,16.60
2022-11-14T16:40:16.106Z,16.60
2022-11-14T16:43:03.309Z,16.60
2022-11-14T16:45:49.538Z,16.50
2022-11-14T16:48:35.753Z,16.70
2022-11-14T16:51:46.652Z,16.50
2022-11-14T16:54:28.117Z,16.60
2022-11-14T16:57:15.768Z,16.70
2022-11-14T17:00:02.465Z,16.70
2022-11-14T17:02:48.835Z,16.60
2022-11-14T17:05:35.339Z,16.70
2022-11-14T17:08:21.823Z,16.60
2022-11-14T17:11:11.407Z,16.70
2022-11-14T17:13:59.100Z,16.70
2022-11-14T17:16:46.853Z,16.70
2022-11-14T17:19:33.375Z,16.80
2022-11-14T17:22:20.675Z,16.90
2022-11-14T17:25:07.491Z,16.80
2022-11-14T17:27:53.909Z,16.80
2022-11-14T17:30:44.773Z,16.80
2022-11-14T17:33:31.481Z,16.80
2022-11-14T17:36:18.752Z,16.90
2022-11-14T17:39:05.359Z,17.00
2022-11-14T17:41:51.754Z,17.00
2022-11-14T17:44:38.302Z,17.10
2022-11-14T17:47:25.831Z,17.20
2022-11-14T17:50:12.139Z,17.20
2022-11-14T17:52:58.753Z,17.20
2022-11-14T17:55:45.572Z,17.30
2022-11-14T17:58:33.546Z,17.30
2022-11-14T18:01:21.807Z,17.40
2022-11-14T18:04:09.734Z,17.40
2022-11-14T18:06:56.247Z,17.40
2022-11-14T18:09:42.795Z,17.30
2022-11-14T18:12:29.366Z,17.20
2022-11-14T18:15:15.934Z,17.30
2022-11-14T18:18:02.271Z,17.30
2022-11-14T18:20:49.846Z,17.30
2022-11-14T18:23:36.410Z,17.30
2022-11-14T18:26:27.401Z,17.40
2022-11-14T18:29:15.493Z,17.40
2022-11-14T18:32:01.968Z,17.40
2022-11-14T18:34:48.645Z,17.50
2022-11-14T18:37:36.342Z,17.40
2022-11-14T18:40:22.891Z,17.20
2022-11-14T18:43:09.371Z,17.10
2022-11-14T18:45:55.553Z,17.00
2022-11-14T18:48:43.918Z,17.00
2022-11-14T18:51:31.821Z,17.10
2022-11-14T18:54:19.442Z,17.20
2022-11-14T18:57:05.814Z,17.20
2022-11-14T18:59:52.349Z,17.20
2022-11-14T19:02:38.570Z,17.10
2022-11-14T19:05:25.082Z,17.10
2022-11-14T19:08:11.698Z,17.10
2022-11-14T19:11:03.075Z,17.00
2022-11-14T19:13:49.289Z,17.00
2022-11-14T19:16:36.993Z,16.90
2022-11-14T19:19:23.749Z,17.00
2022-11-14T19:22:09.860Z,16.90
2022-11-14T19:24:57.730Z,16.90
2022-11-14T19:27:51.071Z,16.90
2022-11-14T19:30:37.627Z,16.90
2022-11-14T19:33:24.039Z,17.00
2022-11-14T19:36:13.351Z,17.20
2022-11-14T19:39:00.794Z,17.20
2022-11-14T19:41:47.230Z,17.20
2022-11-14T19:44:35.045Z,17.20
2022-11-14T19:47:21.238Z,16.90
2022-11-14T19:50:08.770Z,17.00
2022-11-14T19:52:54.924Z,17.00
2022-11-14T19:55:41.423Z,17.00
2022-11-14T19:58:28.050Z,17.00
2022-11-14T20:01:17.922Z,17.10
2022-11-14T20:04:04.257Z,17.10
2022-11-14T20:06:51.300Z,17.20
2022-11-14T20:09:37.818Z,17.30
2022-11-14T20:12:24.255Z,17.30
2022-11-14T20:15:11.548Z,17.30
2022-11-14T20:17:59.450Z,17.30
2022-11-14T20:20:45.929Z,17.20
2022-11-14T20:23:32.576Z,17.20
2022-11-14T20:26:19.874Z,17.30
2022-11-14T20:29:07.065Z,17.20
2022-11-14T20:31:53.282Z,17.10
2022-11-14T20:34:41.184Z,17.00
2022-11-14T20:37:27.454Z,16.90
2022-11-14T20:40:14.131Z,17.00
2022-11-14T20:43:01.587Z,17.00
2022-11-14T20:45:56.293Z,17.10
2022-11-14T20:48:43.229Z,17.00
2022-11-14T20:51:31.152Z,17.00
2022-11-14T20:54:17.727Z,16.90
2022-11-14T20:57:04.269Z,16.80
2022-11-14T20:59:50.883Z,16.80
2022-11-14T21:02:37.161Z,16.80
2022-11-14T21:05:23.723Z,16.80
2022-11-14T21:08:11.606Z,16.70
2022-11-14T21:11:01.286Z,16.70
2022-11-14T21:13:59.943Z,16.70
2022-11-14T21:16:46.479Z,16.80
2022-11-14T21:19:32.949Z,16.80
2022-11-14T21:22:19.473Z,17.00
2022-11-14T21:25:08.132Z,16.90
2022-11-14T21:27:54.613Z,16.90
2022-11-14T21:30:41.137Z,17.00
2022-11-14T21:33:31.415Z,17.00
2022-11-14T21:39:25.291Z,16.90
2022-11-14T21:42:17.131Z,16.90
2022-11-14T21:45:05.013Z,16.80
2022-11-14T21:47:51.621Z,16.90
2022-11-14T21:50:38.194Z,17.00
2022-11-14T21:53:24.339Z,16.80
2022-11-14T21:56:13.164Z,16.80
2022-11-14T21:59:18.857Z,16.70
2022-11-14T22:02:22.689Z,16.80
2022-11-14T22:05:09.378Z,16.80
2022-11-14T22:07:55.763Z,16.80
2022-11-14T22:10:42.166Z,16.80
2022-11-14T22:13:31.184Z,16.80
2022-11-14T22:16:19.624Z,16.60
2022-11-14T22:19:06.402Z,16.60
2022-11-14T22:21:52.867Z,16.60
2022-11-14T22:24:39.077Z,16.50
2022-11-14T22:27:25.387Z,16.40
2022-11-14T22:30:13.095Z,16.50
2022-11-14T22:33:01.415Z,16.40
2022-11-14T22:35:47.925Z,16.40
2022-11-14T22:38:36.092Z,16.30
2022-11-14T22:41:30.517Z,16.30
2022-11-14T22:44:18.561Z,16.30
2022-11-14T22:47:05.130Z,16.30
2022-11-14T22:49:53.050Z,16.40
2022-11-14T22:52:39.303Z,16.40
2022-11-14T22:55:25.703Z,16.40
2022-11-14T22:58:12.181Z,16.30
2022-11-14T23:00:58.936Z,16.30
2022-11-14T23:03:47.933Z,16.20
2022-11-14T23:06:35.799Z,16.20
2022-11-14T23:09:22.467Z,16.10
2022-11-14T23:12:08.888Z,16.10
2022-11-14T23:14:55.198Z,16.00
2022-11-14T23:17:41.766Z,16.00
2022-11-14T23:20:28.533Z,16.00
2022-11-14T23:23:16.755Z,16.00
2022-11-14T23:26:07.796Z,16.00
2022-11-14T23:28:54.801Z,16.00
2022-11-14T23:31:41.502Z,16.00
2022-11-14T23:34:27.671Z,16.00
2022-11-14T23:37:13.929Z,16.00
2022-11-14T23:40:01.795Z,16.10
2022-11-14T23:42:48.015Z,16.10
2022-11-14T23:45:34.279Z,16.10
2022-11-14T23:48:22.014Z,16.00
2022-11-14T23:51:08.215Z,16.10
2022-11-14T23:53:54.792Z,16.00
2022-11-14T23:56:42.689Z,16.20
2022-11-14T23:59:28.823Z,16.20
